DLH9AF EDDF-EGCC
Flight info
| Callsign | DLH9AF |
|---|---|
| Flight time | 1h 23m |
| Altitude | 34000 |
| Route | OBOKA5S OBOKA Z29 TORNU DCT GALSO Q63 ERING L179 LAM UN57 WELIN T420 ELVOS |
| Aircraft | A21N/M-SDE2E3FGHIRWXY/LB1 |
Departure
| Time | 2026-04-17 05:47 |
|---|---|
| Airport | Frankfurt Main Airport (EDDF) |
Arrival
| Time | 2026-04-17 07:10 |
|---|---|
| Airport | Manchester Airport (EGCC) |
| Time | Latitude | Longitude | Altitude | Speed | Heading |
|---|---|---|---|---|---|
| 2026-04-17 05:18 | 50.04406 | 8.56220 | 361 ft | 0 kts | 159° |
| 2026-04-17 05:33 | 50.04412 | 8.56217 | 367 ft | 4 kts | 156° |
| 2026-04-17 05:34 | 50.04435 | 8.56201 | 361 ft | 4 kts | 163° |
| 2026-04-17 05:34 | 50.04460 | 8.56198 | 361 ft | 4 kts | 202° |
| 2026-04-17 05:34 | 50.04477 | 8.56223 | 363 ft | 4 kts | 244° |
| 2026-04-17 05:34 | 50.04486 | 8.56255 | 361 ft | 3 kts | 250° |
| 2026-04-17 05:35 | 50.04495 | 8.56293 | 361 ft | 4 kts | 250° |
| 2026-04-17 05:35 | 50.04504 | 8.56333 | 364 ft | 4 kts | 250° |
| 2026-04-17 05:35 | 50.04509 | 8.56350 | 361 ft | 0 kts | 250° |
| 2026-04-17 05:36 | 50.04509 | 8.56351 | 361 ft | 0 kts | 250° |
| 2026-04-17 05:39 | 50.04508 | 8.56348 | 364 ft | 2 kts | 250° |
| 2026-04-17 05:39 | 50.04501 | 8.56320 | 363 ft | 4 kts | 249° |
| 2026-04-17 05:39 | 50.04490 | 8.56274 | 361 ft | 5 kts | 249° |
| 2026-04-17 05:40 | 50.04475 | 8.56211 | 362 ft | 7 kts | 249° |
| 2026-04-17 05:40 | 50.04455 | 8.56131 | 365 ft | 9 kts | 249° |
| 2026-04-17 05:40 | 50.04432 | 8.56032 | 364 ft | 11 kts | 249° |
| 2026-04-17 05:40 | 50.04361 | 8.56031 | 365 ft | 12 kts | 158° |
| 2026-04-17 05:41 | 50.04279 | 8.56055 | 360 ft | 13 kts | 210° |
| 2026-04-17 05:41 | 50.04237 | 8.55922 | 361 ft | 15 kts | 250° |
| 2026-04-17 05:41 | 50.04201 | 8.55768 | 358 ft | 16 kts | 250° |
| 2026-04-17 05:41 | 50.04162 | 8.55602 | 363 ft | 17 kts | 250° |
| 2026-04-17 05:42 | 50.04119 | 8.55423 | 362 ft | 18 kts | 249° |
| 2026-04-17 05:42 | 50.04072 | 8.55232 | 360 ft | 20 kts | 249° |
| 2026-04-17 05:42 | 50.04022 | 8.55028 | 362 ft | 21 kts | 249° |
| 2026-04-17 05:42 | 50.03970 | 8.54814 | 360 ft | 22 kts | 249° |
| 2026-04-17 05:43 | 50.03916 | 8.54590 | 355 ft | 23 kts | 249° |
| 2026-04-17 05:43 | 50.03867 | 8.54387 | 355 ft | 14 kts | 242° |
| 2026-04-17 05:43 | 50.03808 | 8.54255 | 355 ft | 16 kts | 243° |
| 2026-04-17 05:43 | 50.03768 | 8.54090 | 352 ft | 17 kts | 249° |
| 2026-04-17 05:44 | 50.03726 | 8.53915 | 354 ft | 18 kts | 249° |
| 2026-04-17 05:44 | 50.03680 | 8.53727 | 352 ft | 19 kts | 249° |
| 2026-04-17 05:44 | 50.03632 | 8.53528 | 351 ft | 20 kts | 249° |
| 2026-04-17 05:44 | 50.03583 | 8.53322 | 353 ft | 19 kts | 249° |
| 2026-04-17 05:45 | 50.03535 | 8.53122 | 345 ft | 20 kts | 250° |
| 2026-04-17 05:45 | 50.03486 | 8.52920 | 350 ft | 19 kts | 249° |
| 2026-04-17 05:45 | 50.03442 | 8.52762 | 345 ft | 10 kts | 246° |
| 2026-04-17 05:45 | 50.03411 | 8.52652 | 338 ft | 12 kts | 246° |
| 2026-04-17 05:46 | 50.03348 | 8.52594 | 341 ft | 10 kts | 183° |
| 2026-04-17 05:46 | 50.03334 | 8.52594 | 341 ft | 0 kts | 179° |
| 2026-04-17 05:46 | 50.03198 | 8.52596 | 341 ft | 54 kts | 179° |
| 2026-04-17 05:46 | 50.02566 | 8.52601 | 341 ft | 126 kts | 179° |
| 2026-04-17 05:47 | 50.01486 | 8.52610 | 361 ft | 178 kts | 180° |
| 2026-04-17 05:47 | 50.00262 | 8.52615 | 1018 ft | 173 kts | 179° |
| 2026-04-17 05:47 | 49.99045 | 8.52638 | 1682 ft | 178 kts | 179° |
| 2026-04-17 05:47 | 49.97767 | 8.52419 | 2174 ft | 192 kts | 196° |
| 2026-04-17 05:48 | 49.96593 | 8.51360 | 2783 ft | 201 kts | 223° |
| 2026-04-17 05:48 | 49.95750 | 8.49576 | 3450 ft | 210 kts | 234° |
| 2026-04-17 05:48 | 49.94751 | 8.47850 | 3976 ft | 226 kts | 222° |
| 2026-04-17 05:48 | 49.93557 | 8.46157 | 4627 ft | 235 kts | 222° |
| 2026-04-17 05:49 | 49.92318 | 8.44412 | 5296 ft | 248 kts | 222° |
| 2026-04-17 05:49 | 49.91024 | 8.42567 | 5866 ft | 262 kts | 223° |
| 2026-04-17 05:49 | 49.89706 | 8.40561 | 6650 ft | 268 kts | 225° |
| 2026-04-17 05:49 | 49.88404 | 8.38467 | 7430 ft | 272 kts | 228° |
| 2026-04-17 05:50 | 49.87393 | 8.36002 | 8217 ft | 274 kts | 251° |
| 2026-04-17 05:50 | 49.87219 | 8.33065 | 8934 ft | 280 kts | 280° |
| 2026-04-17 05:50 | 49.87969 | 8.30293 | 9722 ft | 281 kts | 303° |
| 2026-04-17 05:50 | 49.89097 | 8.27804 | 10536 ft | 285 kts | 304° |
| 2026-04-17 05:51 | 49.90243 | 8.25183 | 10880 ft | 303 kts | 303° |
| 2026-04-17 05:51 | 49.91429 | 8.22349 | 11151 ft | 323 kts | 302° |
| 2026-04-17 05:51 | 49.92688 | 8.19336 | 11413 ft | 342 kts | 302° |
| 2026-04-17 05:51 | 49.94085 | 8.16226 | 11719 ft | 358 kts | 309° |
| 2026-04-17 05:52 | 49.95879 | 8.13481 | 12333 ft | 365 kts | 318° |
| 2026-04-17 05:52 | 49.97814 | 8.10902 | 13058 ft | 368 kts | 319° |
| 2026-04-17 05:52 | 49.99776 | 8.08321 | 13790 ft | 371 kts | 319° |
| 2026-04-17 05:52 | 50.01719 | 8.05741 | 14448 ft | 374 kts | 318° |
| 2026-04-17 05:53 | 50.03693 | 8.03092 | 15063 ft | 377 kts | 318° |
| 2026-04-17 05:53 | 50.05691 | 8.00418 | 15671 ft | 379 kts | 318° |
| 2026-04-17 05:53 | 50.07697 | 7.97726 | 16284 ft | 383 kts | 319° |
| 2026-04-17 05:53 | 50.09730 | 7.95000 | 16908 ft | 386 kts | 318° |
| 2026-04-17 05:54 | 50.11772 | 7.92244 | 17530 ft | 389 kts | 318° |
| 2026-04-17 05:54 | 50.13825 | 7.89473 | 18151 ft | 392 kts | 318° |
| 2026-04-17 05:54 | 50.15897 | 7.86667 | 18728 ft | 396 kts | 318° |
| 2026-04-17 05:54 | 50.17980 | 7.83841 | 19265 ft | 398 kts | 318° |
| 2026-04-17 05:55 | 50.20077 | 7.80994 | 19807 ft | 400 kts | 318° |
| 2026-04-17 05:55 | 50.22167 | 7.78173 | 20336 ft | 403 kts | 318° |
| 2026-04-17 05:55 | 50.24311 | 7.75317 | 20866 ft | 405 kts | 320° |
| 2026-04-17 05:55 | 50.26690 | 7.72905 | 21384 ft | 409 kts | 331° |
| 2026-04-17 05:56 | 50.29288 | 7.71039 | 21905 ft | 412 kts | 334° |
| 2026-04-17 05:56 | 50.31942 | 7.69255 | 22412 ft | 415 kts | 335° |
| 2026-04-17 05:56 | 50.34599 | 7.67472 | 22927 ft | 417 kts | 334° |
| 2026-04-17 05:56 | 50.37270 | 7.65655 | 23410 ft | 420 kts | 334° |
| 2026-04-17 05:57 | 50.39956 | 7.63808 | 23876 ft | 423 kts | 334° |
| 2026-04-17 05:57 | 50.42655 | 7.61960 | 24274 ft | 425 kts | 334° |
| 2026-04-17 05:57 | 50.45338 | 7.60118 | 24677 ft | 427 kts | 334° |
| 2026-04-17 05:57 | 50.48065 | 7.58226 | 25069 ft | 429 kts | 334° |
| 2026-04-17 05:58 | 50.50813 | 7.56332 | 25465 ft | 431 kts | 334° |
| 2026-04-17 05:58 | 50.53572 | 7.54443 | 25855 ft | 434 kts | 334° |
| 2026-04-17 05:58 | 50.56283 | 7.52342 | 26229 ft | 434 kts | 328° |
| 2026-04-17 05:59 | 50.61388 | 7.47186 | 26974 ft | 438 kts | 324° |
| 2026-04-17 05:59 | 50.63947 | 7.44547 | 27328 ft | 440 kts | 325° |
| 2026-04-17 05:59 | 50.66537 | 7.41920 | 27740 ft | 441 kts | 325° |
| 2026-04-17 05:59 | 50.69107 | 7.39310 | 28221 ft | 439 kts | 325° |
| 2026-04-17 06:00 | 50.71652 | 7.36654 | 28706 ft | 437 kts | 322° |
| 2026-04-17 06:00 | 50.73937 | 7.33518 | 29146 ft | 434 kts | 312° |
| 2026-04-17 06:00 | 50.75774 | 7.29764 | 29586 ft | 431 kts | 301° |
| 2026-04-17 06:00 | 50.77198 | 7.25673 | 30038 ft | 429 kts | 297° |
| 2026-04-17 06:01 | 50.78545 | 7.21472 | 30439 ft | 428 kts | 296° |
| 2026-04-17 06:01 | 50.79887 | 7.17283 | 30810 ft | 427 kts | 296° |
| 2026-04-17 06:01 | 50.81229 | 7.13111 | 31180 ft | 425 kts | 296° |
| 2026-04-17 06:01 | 50.82573 | 7.08954 | 31546 ft | 423 kts | 296° |
| 2026-04-17 06:02 | 50.83909 | 7.04818 | 31901 ft | 421 kts | 296° |
| 2026-04-17 06:02 | 50.85242 | 7.00702 | 32235 ft | 419 kts | 296° |
| 2026-04-17 06:02 | 50.86565 | 6.96596 | 32568 ft | 418 kts | 296° |
| 2026-04-17 06:02 | 50.87883 | 6.92504 | 32897 ft | 416 kts | 296° |
| 2026-04-17 06:03 | 50.89197 | 6.88422 | 33204 ft | 415 kts | 296° |
| 2026-04-17 06:03 | 50.90499 | 6.84365 | 33509 ft | 413 kts | 296° |
| 2026-04-17 06:03 | 50.91798 | 6.80310 | 33803 ft | 412 kts | 296° |
| 2026-04-17 06:03 | 50.93097 | 6.76264 | 34092 ft | 411 kts | 296° |
| 2026-04-17 06:04 | 50.94386 | 6.72229 | 34272 ft | 410 kts | 296° |
| 2026-04-17 06:04 | 50.96935 | 6.64222 | 34274 ft | 409 kts | 296° |
| 2026-04-17 06:05 | 50.99499 | 6.56157 | 34257 ft | 409 kts | 296° |
| 2026-04-17 06:05 | 51.02054 | 6.48093 | 34254 ft | 408 kts | 296° |
| 2026-04-17 06:06 | 51.04609 | 6.40016 | 34258 ft | 409 kts | 296° |
| 2026-04-17 06:06 | 51.07157 | 6.31916 | 34252 ft | 409 kts | 295° |
| 2026-04-17 06:07 | 51.09673 | 6.23878 | 34251 ft | 409 kts | 296° |
| 2026-04-17 06:07 | 51.12205 | 6.15772 | 34251 ft | 409 kts | 296° |
| 2026-04-17 06:08 | 51.14428 | 6.07446 | 34253 ft | 409 kts | 286° |
| 2026-04-17 06:08 | 51.15869 | 5.98664 | 34251 ft | 410 kts | 285° |
| 2026-04-17 06:09 | 51.17279 | 5.89855 | 34249 ft | 410 kts | 285° |
| 2026-04-17 06:09 | 51.18819 | 5.81104 | 34245 ft | 410 kts | 289° |
| 2026-04-17 06:10 | 51.20685 | 5.72569 | 34242 ft | 410 kts | 289° |
| 2026-04-17 06:10 | 51.22561 | 5.63963 | 34242 ft | 411 kts | 289° |
| 2026-04-17 06:11 | 51.24447 | 5.55350 | 34253 ft | 411 kts | 289° |
| 2026-04-17 06:11 | 51.26322 | 5.46728 | 34254 ft | 411 kts | 289° |
| 2026-04-17 06:12 | 51.28189 | 5.38092 | 34253 ft | 411 kts | 289° |
| 2026-04-17 06:12 | 51.30046 | 5.29437 | 34254 ft | 411 kts | 289° |
| 2026-04-17 06:13 | 51.31903 | 5.20789 | 34252 ft | 411 kts | 289° |
| 2026-04-17 06:13 | 51.33737 | 5.12168 | 34251 ft | 411 kts | 289° |
| 2026-04-17 06:14 | 51.35578 | 5.03519 | 34251 ft | 411 kts | 289° |
| 2026-04-17 06:14 | 51.37404 | 4.94864 | 34253 ft | 410 kts | 289° |
| 2026-04-17 06:15 | 51.39218 | 4.86243 | 34256 ft | 410 kts | 288° |
| 2026-04-17 06:15 | 51.41038 | 4.77583 | 34256 ft | 409 kts | 288° |
| 2026-04-17 06:16 | 51.42840 | 4.68932 | 34253 ft | 409 kts | 288° |
| 2026-04-17 06:16 | 51.44645 | 4.60274 | 34233 ft | 409 kts | 288° |
| 2026-04-17 06:17 | 51.46433 | 4.51650 | 34232 ft | 409 kts | 288° |
| 2026-04-17 06:17 | 51.48216 | 4.42986 | 34233 ft | 409 kts | 287° |
| 2026-04-17 06:18 | 51.49990 | 4.34327 | 34229 ft | 409 kts | 287° |
| 2026-04-17 06:18 | 51.51764 | 4.25654 | 34231 ft | 408 kts | 287° |
| 2026-04-17 06:19 | 51.53524 | 4.16985 | 34230 ft | 408 kts | 287° |
| 2026-04-17 06:19 | 51.54983 | 4.09772 | 34228 ft | 408 kts | 287° |
| 2026-04-17 06:20 | 51.56737 | 4.01094 | 34228 ft | 408 kts | 287° |
| 2026-04-17 06:20 | 51.58490 | 3.92391 | 34224 ft | 408 kts | 287° |
| 2026-04-17 06:21 | 51.60224 | 3.83673 | 34225 ft | 408 kts | 287° |
| 2026-04-17 06:21 | 51.61960 | 3.74973 | 34227 ft | 408 kts | 286° |
| 2026-04-17 06:22 | 51.63692 | 3.66267 | 34224 ft | 408 kts | 286° |
| 2026-04-17 06:22 | 51.65398 | 3.57619 | 34227 ft | 408 kts | 286° |
| 2026-04-17 06:23 | 51.67107 | 3.48910 | 34223 ft | 408 kts | 286° |
| 2026-04-17 06:23 | 51.68810 | 3.40189 | 34227 ft | 407 kts | 285° |
| 2026-04-17 06:24 | 51.70495 | 3.31480 | 34224 ft | 407 kts | 285° |
| 2026-04-17 06:24 | 51.72190 | 3.22755 | 34229 ft | 407 kts | 285° |
| 2026-04-17 06:25 | 51.72960 | 3.13848 | 34225 ft | 404 kts | 267° |
| 2026-04-17 06:25 | 51.72237 | 3.04840 | 34227 ft | 404 kts | 262° |
| 2026-04-17 06:26 | 51.71412 | 2.95866 | 34218 ft | 404 kts | 262° |
| 2026-04-17 06:26 | 51.70633 | 2.86892 | 34219 ft | 404 kts | 262° |
| 2026-04-17 06:27 | 51.69850 | 2.77932 | 34220 ft | 404 kts | 262° |
| 2026-04-17 06:27 | 51.69054 | 2.68977 | 34215 ft | 403 kts | 262° |
| 2026-04-17 06:28 | 51.68257 | 2.60084 | 34217 ft | 403 kts | 262° |
| 2026-04-17 06:28 | 51.67455 | 2.51142 | 34218 ft | 403 kts | 262° |
| 2026-04-17 06:29 | 51.66641 | 2.42221 | 34212 ft | 402 kts | 262° |
| 2026-04-17 06:29 | 51.65822 | 2.33307 | 34213 ft | 402 kts | 262° |
| 2026-04-17 06:30 | 51.65001 | 2.24404 | 34207 ft | 401 kts | 261° |
| 2026-04-17 06:30 | 51.64166 | 2.15521 | 34207 ft | 401 kts | 261° |
| 2026-04-17 06:31 | 51.63333 | 2.06649 | 34208 ft | 401 kts | 261° |
| 2026-04-17 06:31 | 51.62516 | 1.97777 | 34205 ft | 401 kts | 261° |
| 2026-04-17 06:32 | 51.61699 | 1.89062 | 34200 ft | 401 kts | 261° |
| 2026-04-17 06:32 | 51.60858 | 1.80099 | 34200 ft | 401 kts | 261° |
| 2026-04-17 06:33 | 51.60017 | 1.71235 | 34193 ft | 401 kts | 261° |
| 2026-04-17 06:33 | 51.59215 | 1.62370 | 34193 ft | 401 kts | 264° |
| 2026-04-17 06:34 | 51.59359 | 1.53407 | 34198 ft | 402 kts | 272° |
| 2026-04-17 06:34 | 51.59771 | 1.44440 | 34200 ft | 402 kts | 272° |
| 2026-04-17 06:35 | 51.60165 | 1.35495 | 34195 ft | 401 kts | 272° |
| 2026-04-17 06:35 | 51.60540 | 1.26541 | 34190 ft | 401 kts | 272° |
| 2026-04-17 06:36 | 51.60901 | 1.17591 | 34184 ft | 401 kts | 272° |
| 2026-04-17 06:36 | 51.61244 | 1.08650 | 34180 ft | 400 kts | 272° |
| 2026-04-17 06:37 | 51.61594 | 0.99705 | 34180 ft | 400 kts | 272° |
| 2026-04-17 06:37 | 51.61935 | 0.90833 | 34178 ft | 399 kts | 272° |
| 2026-04-17 06:38 | 51.62270 | 0.81922 | 34174 ft | 399 kts | 271° |
| 2026-04-17 06:38 | 51.62597 | 0.73019 | 34172 ft | 398 kts | 271° |
| 2026-04-17 06:39 | 51.62919 | 0.64137 | 34173 ft | 397 kts | 271° |
| 2026-04-17 06:39 | 51.63237 | 0.55259 | 34175 ft | 397 kts | 271° |
| 2026-04-17 06:40 | 51.63545 | 0.46399 | 34175 ft | 396 kts | 271° |
| 2026-04-17 06:40 | 51.63847 | 0.37548 | 34176 ft | 396 kts | 271° |
| 2026-04-17 06:41 | 51.64142 | 0.28686 | 34195 ft | 396 kts | 271° |
| 2026-04-17 06:41 | 51.64666 | 0.19924 | 34191 ft | 398 kts | 279° |
| 2026-04-17 06:42 | 51.66909 | 0.11647 | 34190 ft | 410 kts | 300° |
| 2026-04-17 06:42 | 51.70769 | 0.04871 | 34196 ft | 417 kts | 309° |
| 2026-04-17 06:43 | 51.74879 | -0.01744 | 34142 ft | 416 kts | 308° |
| 2026-04-17 06:43 | 51.78933 | -0.08401 | 34134 ft | 416 kts | 308° |
| 2026-04-17 06:44 | 51.82976 | -0.15093 | 34167 ft | 416 kts | 308° |
| 2026-04-17 06:44 | 51.87007 | -0.21824 | 34171 ft | 415 kts | 307° |
| 2026-04-17 06:45 | 51.91014 | -0.28549 | 34172 ft | 415 kts | 308° |
| 2026-04-17 06:45 | 51.95020 | -0.35236 | 34174 ft | 415 kts | 307° |
| 2026-04-17 06:46 | 51.99039 | -0.41963 | 34171 ft | 415 kts | 307° |
| 2026-04-17 06:46 | 52.03063 | -0.48696 | 34147 ft | 415 kts | 308° |
| 2026-04-17 06:47 | 52.07109 | -0.55419 | 34146 ft | 415 kts | 307° |
| 2026-04-17 06:47 | 52.11101 | -0.62137 | 34144 ft | 415 kts | 307° |
| 2026-04-17 06:48 | 52.15103 | -0.68938 | 34146 ft | 415 kts | 307° |
| 2026-04-17 06:48 | 52.19097 | -0.75713 | 33740 ft | 414 kts | 307° |
| 2026-04-17 06:48 | 52.21095 | -0.79114 | 33445 ft | 416 kts | 307° |
| 2026-04-17 06:49 | 52.23102 | -0.82527 | 32984 ft | 416 kts | 307° |
| 2026-04-17 06:49 | 52.25256 | -0.85707 | 32332 ft | 422 kts | 315° |
| 2026-04-17 06:49 | 52.27723 | -0.88369 | 31630 ft | 428 kts | 321° |
| 2026-04-17 06:49 | 52.30275 | -0.90892 | 30929 ft | 429 kts | 321° |
| 2026-04-17 06:50 | 52.32836 | -0.93402 | 30230 ft | 429 kts | 321° |
| 2026-04-17 06:50 | 52.35396 | -0.95936 | 29371 ft | 430 kts | 321° |
| 2026-04-17 06:50 | 52.37956 | -0.98470 | 28587 ft | 430 kts | 321° |
| 2026-04-17 06:50 | 52.40533 | -1.01052 | 27923 ft | 442 kts | 321° |
| 2026-04-17 06:51 | 52.43127 | -1.03653 | 27239 ft | 440 kts | 321° |
| 2026-04-17 06:51 | 52.45730 | -1.06267 | 26551 ft | 438 kts | 322° |
| 2026-04-17 06:51 | 52.48351 | -1.08899 | 25861 ft | 435 kts | 322° |
| 2026-04-17 06:51 | 52.50889 | -1.11455 | 25225 ft | 432 kts | 322° |
| 2026-04-17 06:52 | 52.53448 | -1.14027 | 24557 ft | 430 kts | 322° |
| 2026-04-17 06:52 | 52.55991 | -1.16582 | 23893 ft | 427 kts | 322° |
| 2026-04-17 06:52 | 52.58530 | -1.19118 | 23162 ft | 425 kts | 322° |
| 2026-04-17 06:52 | 52.61043 | -1.21633 | 22425 ft | 421 kts | 322° |
| 2026-04-17 06:53 | 52.63532 | -1.24133 | 21707 ft | 417 kts | 322° |
| 2026-04-17 06:53 | 52.66000 | -1.26620 | 21034 ft | 413 kts | 322° |
| 2026-04-17 06:53 | 52.68437 | -1.29090 | 20408 ft | 409 kts | 322° |
| 2026-04-17 06:53 | 52.70845 | -1.31549 | 19823 ft | 405 kts | 323° |
| 2026-04-17 06:54 | 52.73237 | -1.33987 | 19537 ft | 403 kts | 323° |
| 2026-04-17 06:54 | 52.75620 | -1.36420 | 19261 ft | 402 kts | 323° |
| 2026-04-17 06:54 | 52.77994 | -1.38835 | 19009 ft | 401 kts | 323° |
| 2026-04-17 06:54 | 52.80364 | -1.41253 | 18774 ft | 399 kts | 323° |
| 2026-04-17 06:55 | 52.82716 | -1.43670 | 18410 ft | 396 kts | 323° |
| 2026-04-17 06:55 | 52.85019 | -1.46032 | 17857 ft | 393 kts | 323° |
| 2026-04-17 06:55 | 52.87337 | -1.48421 | 17266 ft | 391 kts | 323° |
| 2026-04-17 06:55 | 52.89648 | -1.50804 | 16701 ft | 390 kts | 323° |
| 2026-04-17 06:56 | 52.91943 | -1.53161 | 16227 ft | 386 kts | 323° |
| 2026-04-17 06:56 | 52.94213 | -1.55505 | 15737 ft | 384 kts | 323° |
| 2026-04-17 06:56 | 52.96481 | -1.57824 | 15211 ft | 383 kts | 324° |
| 2026-04-17 06:56 | 52.98743 | -1.60144 | 14654 ft | 382 kts | 324° |
| 2026-04-17 06:57 | 53.01008 | -1.62475 | 14097 ft | 383 kts | 324° |
| 2026-04-17 06:57 | 53.03271 | -1.64813 | 13530 ft | 382 kts | 324° |
| 2026-04-17 06:57 | 53.05445 | -1.67311 | 12962 ft | 376 kts | 315° |
| 2026-04-17 06:57 | 53.07219 | -1.70438 | 12435 ft | 370 kts | 307° |
| 2026-04-17 06:58 | 53.08885 | -1.73685 | 11879 ft | 368 kts | 306° |
| 2026-04-17 06:58 | 53.10532 | -1.76915 | 11385 ft | 361 kts | 307° |
| 2026-04-17 06:58 | 53.12132 | -1.80037 | 11098 ft | 347 kts | 307° |
| 2026-04-17 06:58 | 53.13669 | -1.83025 | 10884 ft | 331 kts | 306° |
| 2026-04-17 06:59 | 53.15113 | -1.85838 | 10610 ft | 314 kts | 306° |
| 2026-04-17 06:59 | 53.16498 | -1.88536 | 10205 ft | 299 kts | 306° |
| 2026-04-17 06:59 | 53.17820 | -1.91111 | 9803 ft | 284 kts | 306° |
| 2026-04-17 06:59 | 53.19086 | -1.93578 | 9243 ft | 277 kts | 306° |
| 2026-04-17 07:00 | 53.20319 | -1.95987 | 8898 ft | 269 kts | 306° |
| 2026-04-17 07:00 | 53.21528 | -1.98355 | 8494 ft | 265 kts | 305° |
| 2026-04-17 07:00 | 53.22712 | -2.00644 | 8277 ft | 256 kts | 308° |
| 2026-04-17 07:00 | 53.24135 | -2.02389 | 8048 ft | 257 kts | 332° |
| 2026-04-17 07:01 | 53.25934 | -2.02935 | 7623 ft | 269 kts | 356° |
| 2026-04-17 07:01 | 53.27822 | -2.02691 | 7128 ft | 274 kts | 2° |
| 2026-04-17 07:01 | 53.29736 | -2.02364 | 6603 ft | 278 kts | 1° |
| 2026-04-17 07:01 | 53.31682 | -2.02063 | 6055 ft | 283 kts | 1° |
| 2026-04-17 07:02 | 53.33651 | -2.01772 | 5487 ft | 287 kts | 4° |
| 2026-04-17 07:02 | 53.35543 | -2.00748 | 4920 ft | 293 kts | 25° |
| 2026-04-17 07:02 | 53.37321 | -1.99042 | 4370 ft | 296 kts | 30° |
| 2026-04-17 07:02 | 53.39068 | -1.97258 | 4041 ft | 290 kts | 30° |
| 2026-04-17 07:03 | 53.40776 | -1.95508 | 3961 ft | 288 kts | 30° |
| 2026-04-17 07:03 | 53.42464 | -1.93771 | 3956 ft | 276 kts | 30° |
| 2026-04-17 07:03 | 53.44050 | -1.92129 | 3966 ft | 261 kts | 30° |
| 2026-04-17 07:03 | 53.45648 | -1.90721 | 3968 ft | 256 kts | 12° |
| 2026-04-17 07:04 | 53.47310 | -1.90522 | 3958 ft | 227 kts | 341° |
| 2026-04-17 07:04 | 53.48775 | -1.91520 | 3996 ft | 228 kts | 324° |
| 2026-04-17 07:04 | 53.49879 | -1.93158 | 3998 ft | 204 kts | 292° |
| 2026-04-17 07:04 | 53.50215 | -1.94583 | 3992 ft | 196 kts | 275° |
| 2026-04-17 07:05 | 53.50284 | -1.97521 | 3990 ft | 185 kts | 245° |
| 2026-04-17 07:05 | 53.49554 | -1.99256 | 3998 ft | 183 kts | 225° |
| 2026-04-17 07:05 | 53.48626 | -2.00721 | 3987 ft | 183 kts | 223° |
| 2026-04-17 07:05 | 53.47719 | -2.02209 | 3864 ft | 183 kts | 226° |
| 2026-04-17 07:06 | 53.47142 | -2.03242 | 3742 ft | 183 kts | 227° |
| 2026-04-17 07:06 | 53.46305 | -2.04846 | 3511 ft | 182 kts | 229° |
| 2026-04-17 07:06 | 53.45498 | -2.06484 | 3267 ft | 182 kts | 230° |
| 2026-04-17 07:06 | 53.44706 | -2.08124 | 3020 ft | 180 kts | 229° |
| 2026-04-17 07:07 | 53.43922 | -2.09754 | 2775 ft | 175 kts | 229° |
| 2026-04-17 07:07 | 53.43204 | -2.11247 | 2589 ft | 156 kts | 229° |
| 2026-04-17 07:07 | 53.42548 | -2.12611 | 2374 ft | 145 kts | 229° |
| 2026-04-17 07:07 | 53.41934 | -2.13889 | 2157 ft | 137 kts | 227° |
| 2026-04-17 07:08 | 53.41346 | -2.15110 | 1959 ft | 135 kts | 227° |
| 2026-04-17 07:08 | 53.40752 | -2.16344 | 1778 ft | 137 kts | 227° |
| 2026-04-17 07:08 | 53.40147 | -2.17598 | 1594 ft | 140 kts | 226° |
| 2026-04-17 07:08 | 53.39556 | -2.18830 | 1429 ft | 128 kts | 227° |
| 2026-04-17 07:09 | 53.38999 | -2.19984 | 1242 ft | 128 kts | 226° |
| 2026-04-17 07:09 | 53.38441 | -2.21148 | 1036 ft | 128 kts | 227° |
| 2026-04-17 07:09 | 53.37884 | -2.22316 | 826 ft | 129 kts | 226° |
| 2026-04-17 07:09 | 53.37307 | -2.23476 | 679 ft | 131 kts | 227° |
| 2026-04-17 07:10 | 53.36736 | -2.24670 | 465 ft | 132 kts | 228° |
| 2026-04-17 07:10 | 53.36157 | -2.25867 | 292 ft | 132 kts | 229° |
| 2026-04-17 07:10 | 53.35638 | -2.26944 | 265 ft | 89 kts | 231° |
| 2026-04-17 07:10 | 53.35412 | -2.27419 | 258 ft | 37 kts | 231° |
| 2026-04-17 07:11 | 53.35312 | -2.27630 | 254 ft | 18 kts | 232° |
| 2026-04-17 07:11 | 53.35257 | -2.27822 | 247 ft | 19 kts | 260° |
| 2026-04-17 07:11 | 53.35242 | -2.28046 | 243 ft | 20 kts | 262° |
| 2026-04-17 07:11 | 53.35233 | -2.28163 | 242 ft | 8 kts | 284° |
| 2026-04-17 07:12 | 53.35293 | -2.28188 | 243 ft | 11 kts | 5° |
| 2026-04-17 07:12 | 53.35378 | -2.28175 | 245 ft | 14 kts | 5° |
| 2026-04-17 07:12 | 53.35481 | -2.28139 | 248 ft | 16 kts | 32° |
| 2026-04-17 07:12 | 53.35571 | -2.28018 | 252 ft | 17 kts | 47° |
| 2026-04-17 07:13 | 53.35617 | -2.27918 | 255 ft | 6 kts | 53° |
| 2026-04-17 07:13 | 53.35664 | -2.27890 | 256 ft | 10 kts | 6° |
| 2026-04-17 07:13 | 53.35745 | -2.27878 | 259 ft | 13 kts | 5° |
| 2026-04-17 07:13 | 53.35846 | -2.27859 | 260 ft | 15 kts | 7° |
| 2026-04-17 07:14 | 53.35959 | -2.27838 | 260 ft | 17 kts | 6° |
| 2026-04-17 07:14 | 53.36077 | -2.27873 | 260 ft | 19 kts | 321° |
| 2026-04-17 07:14 | 53.36148 | -2.27986 | 260 ft | 12 kts | 315° |
| 2026-04-17 07:14 | 53.36211 | -2.28091 | 260 ft | 14 kts | 315° |
| 2026-04-17 07:15 | 53.36282 | -2.28212 | 260 ft | 16 kts | 314° |
| 2026-04-17 07:15 | 53.36361 | -2.28350 | 260 ft | 17 kts | 314° |
| 2026-04-17 07:15 | 53.36444 | -2.28493 | 260 ft | 13 kts | 314° |
| 2026-04-17 07:15 | 53.36513 | -2.28610 | 260 ft | 15 kts | 315° |
| 2026-04-17 07:16 | 53.36569 | -2.28749 | 260 ft | 15 kts | 294° |
| 2026-04-17 07:16 | 53.36657 | -2.28731 | 260 ft | 7 kts | 43° |
| 2026-04-17 07:16 | 53.36698 | -2.28661 | 260 ft | 9 kts | 45° |
| 2026-04-17 07:16 | 53.36741 | -2.28603 | 260 ft | 5 kts | 359° |
| 2026-04-17 07:17 | 53.36778 | -2.28641 | 260 ft | 8 kts | 315° |
| 2026-04-17 07:17 | 53.36801 | -2.28679 | 260 ft | 0 kts | 314° |